createdAt,value
2023-04-12T00:01:56.697Z,17.35
2023-04-12T00:04:49.597Z,17.38
2023-04-12T00:07:39.371Z,16.63
2023-04-12T00:10:28.322Z,17.95
2023-04-12T00:13:17.751Z,17.25
2023-04-12T00:16:07.423Z,17.50
2023-04-12T00:18:57.454Z,18.10
2023-04-12T00:21:47.886Z,17.90
2023-04-12T00:24:36.924Z,17.80
2023-04-12T00:27:25.929Z,16.95
2023-04-12T00:30:14.773Z,15.80
2023-04-12T00:33:05.022Z,14.50
2023-04-12T00:35:53.854Z,15.48
2023-04-12T00:38:45.949Z,16.00
2023-04-12T00:41:37.517Z,15.35
2023-04-12T00:44:26.527Z,15.18
2023-04-12T00:47:16.368Z,14.63
2023-04-12T00:50:07.086Z,13.93
2023-04-12T00:52:58.730Z,13.88
2023-04-12T00:55:50.050Z,13.20
2023-04-12T00:58:38.783Z,13.93
2023-04-12T01:01:28.370Z,13.98
2023-04-12T01:04:18.752Z,13.60
2023-04-12T01:07:16.452Z,14.05
2023-04-12T01:10:12.710Z,13.88
2023-04-12T01:13:12.051Z,14.77
2023-04-12T01:16:11.342Z,15.02
2023-04-12T01:19:03.927Z,15.98
2023-04-12T01:22:02.630Z,15.30
2023-04-12T01:25:16.452Z,15.02
2023-04-12T01:28:08.477Z,16.15
2023-04-12T01:30:57.952Z,14.60
2023-04-12T01:33:48.514Z,15.20
2023-04-12T01:36:40.680Z,15.73
2023-04-12T01:39:31.058Z,14.48
2023-04-12T01:42:20.888Z,14.48
2023-04-12T01:45:12.044Z,14.40
2023-04-12T01:48:01.540Z,14.25
2023-04-12T01:51:00.080Z,12.95
2023-04-12T01:53:56.332Z,12.27
2023-04-12T01:56:50.171Z,11.48
2023-04-12T01:59:43.430Z,10.07
2023-04-12T02:02:36.684Z,10.25
2023-04-12T02:05:26.252Z,9.95
2023-04-12T02:08:15.693Z,9.93
2023-04-12T02:11:10.003Z,9.85
2023-04-12T02:13:59.197Z,9.23
2023-04-12T02:16:50.860Z,9.60
2023-04-12T02:19:41.190Z,9.63
2023-04-12T02:22:30.623Z,9.50
2023-04-12T02:25:19.558Z,9.93
2023-04-12T02:28:08.582Z,10.00
2023-04-12T02:30:57.385Z,10.57
2023-04-12T02:33:47.102Z,10.57
2023-04-12T02:36:38.067Z,10.63
2023-04-12T02:39:29.319Z,12.00
2023-04-12T02:42:19.426Z,12.30
2023-04-12T02:45:12.146Z,12.00
2023-04-12T02:48:02.547Z,11.77
2023-04-12T02:50:51.886Z,12.50
2023-04-12T02:53:45.604Z,12.18
2023-04-12T02:56:38.878Z,12.77
2023-04-12T02:59:44.236Z,12.73
2023-04-12T03:02:38.385Z,13.02
2023-04-12T03:05:29.738Z,12.95
2023-04-12T03:08:18.919Z,12.57
2023-04-12T03:11:15.574Z,13.32
2023-04-12T03:14:04.478Z,13.20
2023-04-12T03:16:54.053Z,13.40
2023-04-12T03:19:42.753Z,12.75
2023-04-12T03:22:32.467Z,13.25
2023-04-12T03:25:22.001Z,13.50
2023-04-12T03:28:18.205Z,13.98
2023-04-12T03:31:13.051Z,13.70
2023-04-12T03:34:04.548Z,14.55
2023-04-12T03:36:53.924Z,13.70
2023-04-12T03:39:59.636Z,14.23
2023-04-12T03:42:48.363Z,13.90
2023-04-12T03:45:39.022Z,13.82
2023-04-12T03:48:29.204Z,14.00
2023-04-12T03:51:18.327Z,14.00
2023-04-12T03:54:07.123Z,15.68
2023-04-12T03:57:05.520Z,15.10
2023-04-12T04:00:10.004Z,15.55
2023-04-12T04:03:27.326Z,16.05
2023-04-12T04:06:29.933Z,15.85
2023-04-12T04:09:18.673Z,14.98
2023-04-12T04:12:08.084Z,15.88
2023-04-12T04:15:01.313Z,16.80
2023-04-12T04:17:53.617Z,16.30
2023-04-12T04:20:43.992Z,16.13
2023-04-12T04:23:38.623Z,16.85
2023-04-12T04:26:32.500Z,16.40
2023-04-12T04:29:30.148Z,16.65
2023-04-12T04:32:20.150Z,17.17
2023-04-12T04:35:10.012Z,16.90
2023-04-12T04:38:15.965Z,16.30
2023-04-12T04:41:06.225Z,17.05
2023-04-12T04:44:10.821Z,17.20
2023-04-12T04:47:06.983Z,19.00
2023-04-12T04:49:56.560Z,18.50
2023-04-12T04:52:48.762Z,18.10
2023-04-12T04:55:39.032Z,17.42
2023-04-12T04:58:28.515Z,17.67
2023-04-12T05:01:17.987Z,18.77
2023-04-12T05:04:10.005Z,18.60
2023-04-12T05:06:59.024Z,18.25
2023-04-12T05:09:48.301Z,19.00
2023-04-12T05:12:39.734Z,17.75
2023-04-12T05:15:31.760Z,18.70
2023-04-12T05:18:23.624Z,18.92
2023-04-12T05:21:12.663Z,18.42
2023-04-12T05:24:02.328Z,18.98
2023-04-12T05:26:53.889Z,19.92
2023-04-12T05:29:44.242Z,22.30
2023-04-12T05:32:33.410Z,21.98
2023-04-12T05:35:22.726Z,22.00
2023-04-12T05:38:14.906Z,22.35
2023-04-12T05:41:06.482Z,21.80
2023-04-12T05:43:59.261Z,22.33
2023-04-12T05:46:49.739Z,21.08
2023-04-12T05:49:38.783Z,20.98
2023-04-12T05:52:31.022Z,20.55
2023-04-12T05:55:20.233Z,19.35
2023-04-12T05:58:08.968Z,19.45
2023-04-12T06:00:57.947Z,21.58
2023-04-12T06:03:49.506Z,20.65
2023-04-12T06:06:38.365Z,19.83
2023-04-12T06:09:27.946Z,21.00
2023-04-12T06:12:17.272Z,19.77
2023-04-12T06:15:08.034Z,20.08
2023-04-12T06:17:58.350Z,20.38
2023-04-12T06:20:48.584Z,20.70
2023-04-12T06:23:37.483Z,20.17
2023-04-12T06:26:27.008Z,20.55
2023-04-12T06:29:17.317Z,20.67
2023-04-12T06:32:08.210Z,19.48
2023-04-12T06:34:57.587Z,19.65
2023-04-12T06:37:47.895Z,20.10
2023-04-12T06:40:36.694Z,19.55
2023-04-12T06:43:25.562Z,19.90
2023-04-12T06:46:15.747Z,20.25
2023-04-12T06:49:04.407Z,20.63
2023-04-12T06:51:53.218Z,21.13
2023-04-12T06:54:44.100Z,19.88
2023-04-12T06:57:33.231Z,19.67
2023-04-12T07:00:23.123Z,20.58
2023-04-12T07:03:12.235Z,19.83
2023-04-12T07:06:10.631Z,20.33
2023-04-12T07:09:06.420Z,20.83
2023-04-12T07:11:56.613Z,20.35
2023-04-12T07:14:45.347Z,21.10
2023-04-12T07:17:34.218Z,20.10
2023-04-12T07:20:23.127Z,20.42
2023-04-12T07:23:12.002Z,19.00
2023-04-12T07:26:01.129Z,20.90
2023-04-12T07:28:51.592Z,20.30
2023-04-12T07:31:40.510Z,20.98
2023-04-12T07:34:29.522Z,27.40
2023-04-12T07:37:19.071Z,19.83
2023-04-12T07:40:09.456Z,18.50
2023-04-12T07:42:58.219Z,19.33
2023-04-12T07:45:48.653Z,17.95
2023-04-12T07:48:37.443Z,19.02
2023-04-12T07:51:29.655Z,19.42
2023-04-12T07:54:18.541Z,19.25
2023-04-12T07:57:08.906Z,17.60
2023-04-12T07:59:57.815Z,17.48
2023-04-12T08:02:48.269Z,18.38
2023-04-12T08:05:37.296Z,18.90
2023-04-12T08:08:26.326Z,18.50
2023-04-12T08:11:15.160Z,18.27
2023-04-12T08:14:04.334Z,18.40
2023-04-12T08:16:53.241Z,18.67
2023-04-12T08:19:43.467Z,19.02
2023-04-12T08:22:32.471Z,18.48
2023-04-12T08:25:21.655Z,17.85
2023-04-12T08:28:10.467Z,18.08
2023-04-12T08:30:59.898Z,18.58
2023-04-12T08:33:48.695Z,19.23
2023-04-12T08:36:38.900Z,18.20
2023-04-12T08:39:28.108Z,18.55
2023-04-12T08:42:17.462Z,19.60
2023-04-12T08:45:07.583Z,18.38
2023-04-12T08:47:57.376Z,19.60
2023-04-12T08:50:50.625Z,19.80
2023-04-12T08:53:41.292Z,19.08
2023-04-12T08:56:31.273Z,19.63
2023-04-12T08:59:20.233Z,19.92
2023-04-12T09:02:09.200Z,18.73
2023-04-12T09:04:58.469Z,18.38
2023-04-12T09:07:47.805Z,18.63
2023-04-12T09:10:39.421Z,18.55
2023-04-12T09:13:35.595Z,18.75
2023-04-12T09:16:45.643Z,18.63
2023-04-12T09:19:35.820Z,18.80
2023-04-12T09:22:35.481Z,17.95
2023-04-12T09:25:45.776Z,18.85
2023-04-12T09:28:34.678Z,18.10
2023-04-12T09:31:23.650Z,18.75
2023-04-12T09:34:12.564Z,19.23
2023-04-12T09:37:01.771Z,20.65
2023-04-12T09:40:01.362Z,21.83
2023-04-12T09:42:55.147Z,19.58
2023-04-12T09:45:43.968Z,19.30
2023-04-12T09:48:33.599Z,19.75
2023-04-12T09:51:29.725Z,19.27
2023-04-12T09:54:18.722Z,18.23
2023-04-12T09:57:09.902Z,17.83
2023-04-12T10:00:05.602Z,18.40
2023-04-12T10:03:00.238Z,19.38
2023-04-12T10:05:49.319Z,19.40
2023-04-12T10:08:39.232Z,19.08
2023-04-12T10:11:29.532Z,18.55
2023-04-12T10:14:19.769Z,18.70
2023-04-12T10:17:12.276Z,19.83
2023-04-12T10:20:01.734Z,18.52
2023-04-12T10:22:52.122Z,18.35
2023-04-12T10:25:47.721Z,18.10
2023-04-12T10:28:36.632Z,18.02
2023-04-12T10:31:30.032Z,17.23
2023-04-12T10:34:25.601Z,17.50
2023-04-12T10:37:14.521Z,17.73
2023-04-12T10:40:05.136Z,17.38
2023-04-12T10:43:27.906Z,17.30
2023-04-12T10:46:54.064Z,16.58
2023-04-12T10:50:21.373Z,15.93
2023-04-12T10:53:25.343Z,16.48
2023-04-12T10:56:36.519Z,15.65
2023-04-12T10:59:34.345Z,15.05
2023-04-12T11:02:26.783Z,15.27
2023-04-12T11:05:21.370Z,15.45
2023-04-12T11:08:13.254Z,16.23
2023-04-12T11:11:19.467Z,15.07
2023-04-12T11:14:11.369Z,15.43
2023-04-12T11:17:22.978Z,16.13
2023-04-12T11:20:13.685Z,15.55
2023-04-12T11:23:05.958Z,16.02
2023-04-12T11:25:54.826Z,16.20
2023-04-12T11:28:43.705Z,15.48
2023-04-12T11:31:32.552Z,15.63
2023-04-12T11:34:21.999Z,16.15
2023-04-12T11:37:11.617Z,14.68
2023-04-12T11:40:02.136Z,14.98
2023-04-12T11:42:51.217Z,15.05
2023-04-12T11:45:40.087Z,15.40
2023-04-12T11:48:29.501Z,15.43
2023-04-12T11:51:25.409Z,14.65
2023-04-12T11:54:14.983Z,14.95
2023-04-12T11:57:05.871Z,14.45
2023-04-12T11:59:55.598Z,14.18
2023-04-12T12:02:55.854Z,14.05
2023-04-12T12:05:53.728Z,15.07
2023-04-12T12:08:42.833Z,13.93
2023-04-12T12:11:33.156Z,15.05
2023-04-12T12:14:24.585Z,14.30
2023-04-12T12:17:15.410Z,14.25
2023-04-12T12:20:04.780Z,15.15
2023-04-12T12:22:53.843Z,14.02
2023-04-12T12:25:48.272Z,13.88
2023-04-12T12:28:38.511Z,14.38
2023-04-12T12:31:29.580Z,14.68
2023-04-12T12:34:19.867Z,13.82
2023-04-12T12:37:14.662Z,13.52
2023-04-12T12:40:13.721Z,13.88
2023-04-12T12:43:02.716Z,13.63
2023-04-12T12:45:51.590Z,13.40
2023-04-12T12:48:42.654Z,12.57
2023-04-12T12:51:31.705Z,13.57
2023-04-12T12:54:36.560Z,13.00
2023-04-12T12:57:28.233Z,13.95
2023-04-12T13:00:18.189Z,13.63
2023-04-12T13:03:07.579Z,12.90
2023-04-12T13:05:58.463Z,13.80
2023-04-12T13:08:47.646Z,13.30
2023-04-12T13:11:36.714Z,13.40
2023-04-12T13:14:25.407Z,13.75
2023-04-12T13:17:14.183Z,13.82
2023-04-12T13:20:04.497Z,12.43
2023-04-12T13:22:55.252Z,12.70
2023-04-12T13:25:44.162Z,12.32
2023-04-12T13:28:33.235Z,11.82
2023-04-12T13:31:22.037Z,11.40
2023-04-12T13:34:10.986Z,12.25
2023-04-12T13:37:00.002Z,11.73
2023-04-12T13:39:52.789Z,12.68
2023-04-12T13:42:41.972Z,11.68
2023-04-12T13:45:32.820Z,12.27
2023-04-12T13:48:23.480Z,11.55
2023-04-12T13:51:12.334Z,11.77
2023-04-12T13:54:02.574Z,11.68
2023-04-12T13:56:52.708Z,11.23
2023-04-12T13:59:41.666Z,11.32
2023-04-12T14:02:31.662Z,11.13
2023-04-12T14:05:20.891Z,11.45
2023-04-12T14:08:09.732Z,12.30
2023-04-12T14:10:58.530Z,11.65
2023-04-12T14:13:48.690Z,12.07
2023-04-12T14:16:37.459Z,12.85
2023-04-12T14:19:26.654Z,13.52
2023-04-12T14:22:15.503Z,12.93
2023-04-12T14:25:04.394Z,12.20
2023-04-12T14:27:53.281Z,11.93
2023-04-12T14:30:43.842Z,13.18
2023-04-12T14:33:33.253Z,13.25
2023-04-12T14:36:22.139Z,13.27
2023-04-12T14:39:13.261Z,11.90
2023-04-12T14:42:04.199Z,11.98
2023-04-12T14:44:53.336Z,12.95
2023-04-12T14:47:44.165Z,12.57
2023-04-12T14:50:33.558Z,12.98
2023-04-12T14:53:23.180Z,12.65
2023-04-12T14:56:23.813Z,12.25
2023-04-12T14:59:13.665Z,12.02
2023-04-12T15:02:02.764Z,13.65
2023-04-12T15:04:53.346Z,13.43
2023-04-12T15:07:42.850Z,12.15
2023-04-12T15:10:32.216Z,13.32
2023-04-12T15:13:25.032Z,13.07
2023-04-12T15:16:16.429Z,13.27
2023-04-12T15:19:13.266Z,12.55
2023-04-12T15:22:08.004Z,12.45
2023-04-12T15:24:58.366Z,12.65
2023-04-12T15:27:47.286Z,11.93
2023-04-12T15:30:36.573Z,12.13
2023-04-12T15:33:26.290Z,12.45
2023-04-12T15:36:16.800Z,13.02
2023-04-12T15:39:07.268Z,11.73
2023-04-12T15:41:56.716Z,10.93
2023-04-12T15:44:46.785Z,12.45
2023-04-12T15:47:35.705Z,11.77
2023-04-12T15:50:24.538Z,11.35
2023-04-12T15:53:13.689Z,12.02
2023-04-12T15:56:04.620Z,11.75
2023-04-12T15:58:54.147Z,12.15
2023-04-12T16:01:44.694Z,11.75
2023-04-12T16:04:34.456Z,12.40
2023-04-12T16:07:23.261Z,12.35
2023-04-12T16:10:12.874Z,12.18
2023-04-12T16:13:05.093Z,12.30
2023-04-12T16:15:53.826Z,12.20
2023-04-12T16:18:43.862Z,12.02
2023-04-12T16:21:34.196Z,13.05
2023-04-12T16:24:22.960Z,12.20
2023-04-12T16:27:11.743Z,12.40
2023-04-12T16:30:04.528Z,12.88
2023-04-12T16:32:53.580Z,12.85
2023-04-12T16:35:50.633Z,12.88
2023-04-12T16:38:39.596Z,13.48
2023-04-12T16:41:28.572Z,14.57
2023-04-12T16:44:20.630Z,14.23
2023-04-12T16:47:11.002Z,14.38
2023-04-12T16:50:00.131Z,15.27
2023-04-12T16:52:48.959Z,15.05
2023-04-12T16:55:41.395Z,15.25
2023-04-12T16:58:30.355Z,16.35
2023-04-12T17:01:19.548Z,14.85
2023-04-12T17:04:10.565Z,15.50
2023-04-12T17:06:59.528Z,16.90
2023-04-12T17:09:48.346Z,15.88
2023-04-12T17:12:37.064Z,15.30
2023-04-12T17:15:26.891Z,15.50
2023-04-12T17:18:15.806Z,15.15
2023-04-12T17:21:06.600Z,15.43
2023-04-12T17:23:56.343Z,15.52
2023-04-12T17:26:46.755Z,15.20
2023-04-12T17:29:35.794Z,14.98
2023-04-12T17:32:24.658Z,15.50
2023-04-12T17:35:14.463Z,16.30
2023-04-12T17:38:05.102Z,16.38
2023-04-12T17:40:54.107Z,15.40
2023-04-12T17:43:43.065Z,14.90
2023-04-12T17:46:33.226Z,14.05
2023-04-12T17:49:22.475Z,14.88
2023-04-12T17:52:11.867Z,15.07
2023-04-12T17:55:02.326Z,15.05
2023-04-12T17:57:53.573Z,14.43
2023-04-12T18:00:46.357Z,14.65
2023-04-12T18:03:35.652Z,14.85
2023-04-12T18:06:24.641Z,14.90
2023-04-12T18:09:14.183Z,13.90
2023-04-12T18:12:05.190Z,13.80
2023-04-12T18:14:54.388Z,14.60
2023-04-12T18:17:44.202Z,13.05
2023-04-12T18:20:33.958Z,12.90
2023-04-12T18:23:22.890Z,13.20
2023-04-12T18:26:11.697Z,12.80
2023-04-12T18:29:02.130Z,12.32
2023-04-12T18:31:51.164Z,12.75
2023-04-12T18:34:39.978Z,12.63
2023-04-12T18:37:29.009Z,12.10
2023-04-12T18:40:18.281Z,13.02
2023-04-12T18:43:08.159Z,13.13
2023-04-12T18:45:58.451Z,13.10
2023-04-12T18:48:49.303Z,12.90
2023-04-12T18:51:38.523Z,12.38
2023-04-12T18:54:29.119Z,11.98
2023-04-12T18:57:18.701Z,11.90
2023-04-12T19:00:13.837Z,11.65
2023-04-12T19:03:06.609Z,12.18
2023-04-12T19:05:55.909Z,12.48
2023-04-12T19:08:45.345Z,12.35
2023-04-12T19:11:37.119Z,12.27
2023-04-12T19:14:28.350Z,12.43
2023-04-12T19:17:17.398Z,12.32
2023-04-12T19:20:09.421Z,12.93
2023-04-12T19:22:58.608Z,12.65
2023-04-12T19:25:47.652Z,12.18
2023-04-12T19:28:36.549Z,13.52
2023-04-12T19:31:26.058Z,13.23
2023-04-12T19:34:17.686Z,13.00
2023-04-12T19:37:08.848Z,12.88
2023-04-12T19:39:58.442Z,13.40
2023-04-12T19:42:48.614Z,13.00
2023-04-12T19:45:38.108Z,12.73
2023-04-12T19:48:27.587Z,13.18
2023-04-12T19:51:16.428Z,13.05
2023-04-12T19:54:09.989Z,12.75
2023-04-12T19:56:59.039Z,13.40
2023-04-12T19:59:47.987Z,13.05
2023-04-12T20:02:36.906Z,13.73
2023-04-12T20:05:26.712Z,14.18
2023-04-12T20:08:15.980Z,13.82
2023-04-12T20:11:06.476Z,13.25
2023-04-12T20:13:55.362Z,13.30
2023-04-12T20:16:47.553Z,13.38
2023-04-12T20:19:36.341Z,13.23
2023-04-12T20:22:25.388Z,14.10
2023-04-12T20:25:14.828Z,13.27
2023-04-12T20:28:05.889Z,14.40
2023-04-12T20:30:54.886Z,14.52
2023-04-12T20:33:44.245Z,14.27
2023-04-12T20:36:33.501Z,14.00
2023-04-12T20:39:22.695Z,13.93
2023-04-12T20:42:12.527Z,13.57
2023-04-12T20:45:02.815Z,13.98
2023-04-12T20:47:52.031Z,14.02
2023-04-12T20:50:41.177Z,14.20
2023-04-12T20:53:30.416Z,14.30
2023-04-12T20:56:19.975Z,15.45
2023-04-12T20:59:10.527Z,15.25
2023-04-12T21:02:01.119Z,15.35
2023-04-12T21:04:50.955Z,15.02
2023-04-12T21:07:41.427Z,14.75
2023-04-12T21:10:30.166Z,14.68
2023-04-12T21:13:21.945Z,14.70
2023-04-12T21:16:14.619Z,14.40
2023-04-12T21:19:05.260Z,15.00
2023-04-12T21:21:54.157Z,14.65
2023-04-12T21:24:45.399Z,14.85
2023-04-12T21:27:34.140Z,15.73
2023-04-12T21:30:23.164Z,14.50
2023-04-12T21:33:13.283Z,15.05
2023-04-12T21:36:03.544Z,15.27
2023-04-12T21:38:52.747Z,14.90
2023-04-12T21:41:41.450Z,14.70
2023-04-12T21:44:30.205Z,14.60
2023-04-12T21:47:19.531Z,15.10
2023-04-12T21:50:09.988Z,14.55
2023-04-12T21:53:00.063Z,13.95
2023-04-12T21:55:49.754Z,14.27
2023-04-12T21:58:38.560Z,14.77
2023-04-12T22:01:27.394Z,14.77
2023-04-12T22:04:16.475Z,14.82
2023-04-12T22:07:06.758Z,14.43
2023-04-12T22:09:58.573Z,14.00
2023-04-12T22:12:50.287Z,14.40
2023-04-12T22:15:39.012Z,14.70
2023-04-12T22:18:27.814Z,14.18
2023-04-12T22:21:16.900Z,13.68
2023-04-12T22:24:08.207Z,13.98
2023-04-12T22:26:58.594Z,14.63
2023-04-12T22:29:49.898Z,14.85
2023-04-12T22:32:38.779Z,14.10
2023-04-12T22:35:30.186Z,15.05
2023-04-12T22:38:19.522Z,15.68
2023-04-12T22:41:08.363Z,14.82
2023-04-12T22:44:03.007Z,14.98
2023-04-12T22:46:54.451Z,16.95
2023-04-12T22:49:50.434Z,17.45
2023-04-12T22:52:40.485Z,17.85
2023-04-12T22:55:29.380Z,16.83
2023-04-12T22:58:18.187Z,15.70
2023-04-12T23:01:11.065Z,15.77
2023-04-12T23:04:01.153Z,15.48
2023-04-12T23:06:55.270Z,14.98
2023-04-12T23:09:45.507Z,14.13
2023-04-12T23:12:34.332Z,15.00
2023-04-12T23:15:24.160Z,15.00
2023-04-12T23:18:14.520Z,14.85
2023-04-12T23:21:03.523Z,15.25
2023-04-12T23:23:52.705Z,14.95
2023-04-12T23:26:41.437Z,14.88
2023-04-12T23:29:30.251Z,15.35
2023-04-12T23:32:18.985Z,15.50
2023-04-12T23:35:10.334Z,14.70
2023-04-12T23:37:59.279Z,15.85
2023-04-12T23:40:51.004Z,15.75
2023-04-12T23:43:39.770Z,15.27
2023-04-12T23:46:28.532Z,16.00
2023-04-12T23:49:17.315Z,16.33
2023-04-12T23:52:07.537Z,16.27
2023-04-12T23:54:56.416Z,15.52
2023-04-12T23:57:45.941Z,16.10
